createdAt,value
2022-12-25T00:00:04.554Z,12.80
2022-12-25T00:02:34.244Z,13.00
2022-12-25T00:05:02.522Z,12.90
2022-12-25T00:07:31.081Z,12.90
2022-12-25T00:09:59.305Z,13.00
2022-12-25T00:12:27.489Z,13.20
2022-12-25T00:14:55.737Z,13.10
2022-12-25T00:17:23.950Z,12.80
2022-12-25T00:19:53.639Z,13.20
2022-12-25T00:22:21.765Z,12.70
2022-12-25T00:24:50.276Z,12.90
2022-12-25T00:27:18.774Z,12.90
2022-12-25T00:29:47.191Z,12.80
2022-12-25T00:32:15.518Z,12.90
2022-12-25T00:34:44.191Z,12.70
2022-12-25T00:37:13.710Z,12.70
2022-12-25T00:39:41.867Z,12.40
2022-12-25T00:42:20.263Z,12.50
2022-12-25T00:44:48.460Z,12.60
2022-12-25T00:47:17.912Z,12.40
2022-12-25T00:49:46.647Z,12.50
2022-12-25T00:52:16.330Z,12.50
2022-12-25T00:54:44.593Z,12.50
2022-12-25T00:57:15.815Z,12.40
2022-12-25T00:59:43.994Z,12.50
2022-12-25T01:02:27.114Z,12.50
2022-12-25T01:04:57.396Z,12.40
2022-12-25T01:07:28.370Z,12.50
2022-12-25T01:10:13.723Z,12.60
2022-12-25T01:12:43.802Z,12.60
2022-12-25T01:15:12.941Z,12.50
2022-12-25T01:17:41.181Z,12.70
2022-12-25T01:20:09.938Z,12.60
2022-12-25T01:22:39.490Z,12.60
2022-12-25T01:25:09.219Z,12.50
2022-12-25T01:27:37.959Z,12.10
2022-12-25T01:30:07.215Z,12.40
2022-12-25T01:32:35.444Z,12.40
2022-12-25T01:35:03.679Z,12.60
2022-12-25T01:37:31.788Z,12.60
2022-12-25T01:40:01.338Z,12.70
2022-12-25T01:42:29.768Z,12.60
2022-12-25T01:45:34.136Z,12.60
2022-12-25T01:48:05.756Z,12.50
2022-12-25T01:50:35.419Z,12.30
2022-12-25T01:53:05.308Z,12.40
2022-12-25T01:55:36.070Z,12.50
2022-12-25T01:58:04.744Z,12.40
2022-12-25T02:00:32.877Z,12.40
2022-12-25T02:03:01.239Z,12.60
2022-12-25T02:05:31.601Z,12.40
2022-12-25T02:08:03.147Z,12.40
2022-12-25T02:10:31.349Z,12.40
2022-12-25T02:13:01.706Z,12.30
2022-12-25T02:15:40.282Z,12.30
2022-12-25T02:18:13.678Z,12.40
2022-12-25T02:20:55.272Z,12.20
2022-12-25T02:23:57.369Z,12.20
2022-12-25T02:26:48.464Z,12.20
2022-12-25T02:29:24.214Z,12.40
2022-12-25T02:31:59.836Z,12.20
2022-12-25T02:34:35.186Z,12.30
2022-12-25T02:37:08.683Z,12.40
2022-12-25T02:39:58.236Z,12.30
2022-12-25T02:42:53.560Z,12.30
2022-12-25T02:45:48.689Z,12.40
2022-12-25T02:48:36.404Z,12.40
2022-12-25T02:51:26.215Z,12.30
2022-12-25T02:54:16.571Z,12.30
2022-12-25T02:57:05.509Z,12.50
2022-12-25T02:59:54.273Z,12.20
2022-12-25T03:02:43.048Z,12.30
2022-12-25T03:05:32.581Z,12.30
2022-12-25T03:08:07.524Z,12.30
2022-12-25T03:10:56.000Z,12.30
2022-12-25T03:13:28.687Z,12.30
2022-12-25T03:16:14.594Z,12.30
2022-12-25T03:18:44.361Z,12.50
2022-12-25T03:21:29.697Z,12.50
2022-12-25T03:24:19.419Z,12.50
2022-12-25T03:26:56.595Z,12.60
2022-12-25T03:29:43.168Z,12.10
2022-12-25T03:32:20.436Z,11.90
2022-12-25T03:35:16.606Z,12.20
2022-12-25T03:38:21.807Z,12.40
2022-12-25T03:41:15.628Z,12.40
2022-12-25T03:44:10.068Z,12.40
2022-12-25T03:47:06.239Z,12.30
2022-12-25T03:50:04.086Z,12.20
2022-12-25T03:52:53.344Z,12.30
2022-12-25T03:55:54.713Z,12.30
2022-12-25T03:58:42.064Z,12.30
2022-12-25T04:01:28.095Z,12.30
2022-12-25T04:04:13.904Z,12.40
2022-12-25T04:06:59.923Z,12.50
2022-12-25T04:09:47.132Z,12.60
2022-12-25T04:12:32.517Z,12.70
2022-12-25T04:15:17.991Z,12.70
2022-12-25T04:18:03.523Z,12.60
2022-12-25T04:20:48.993Z,12.40
2022-12-25T04:23:34.339Z,12.40
2022-12-25T04:26:21.148Z,12.50
2022-12-25T04:29:06.565Z,12.70
2022-12-25T04:31:52.008Z,12.80
2022-12-25T04:34:37.489Z,12.80
2022-12-25T04:37:05.613Z,12.70
2022-12-25T04:39:33.689Z,12.80
2022-12-25T04:42:03.152Z,12.90
2022-12-25T04:44:31.293Z,12.80
2022-12-25T04:46:59.420Z,12.80
2022-12-25T04:49:27.673Z,12.80
2022-12-25T04:51:55.805Z,12.90
2022-12-25T04:54:24.126Z,13.00
2022-12-25T04:56:52.255Z,13.00
2022-12-25T04:59:21.853Z,13.00
2022-12-25T05:01:50.106Z,13.10
2022-12-25T05:04:18.332Z,13.10
2022-12-25T05:06:46.462Z,13.20
2022-12-25T05:09:14.602Z,13.20
2022-12-25T05:11:42.702Z,13.20
2022-12-25T05:14:10.804Z,13.20
2022-12-25T05:16:40.410Z,13.20
2022-12-25T05:19:08.671Z,13.10
2022-12-25T05:21:36.792Z,13.20
2022-12-25T05:24:05.206Z,13.20
2022-12-25T05:26:33.324Z,13.30
2022-12-25T05:29:01.441Z,13.30
2022-12-25T05:31:29.643Z,13.30
2022-12-25T05:33:59.227Z,13.30
2022-12-25T05:36:27.369Z,13.30
2022-12-25T05:38:55.543Z,13.30
2022-12-25T05:41:24.176Z,13.30
2022-12-25T05:43:53.691Z,13.60
2022-12-25T05:46:21.896Z,13.30
2022-12-25T05:48:50.017Z,13.40
2022-12-25T05:51:19.510Z,13.40
2022-12-25T05:53:47.624Z,13.50
2022-12-25T05:56:15.710Z,13.60
2022-12-25T05:58:44.109Z,13.40
2022-12-25T06:01:13.868Z,13.50
2022-12-25T06:03:42.052Z,13.40
2022-12-25T06:06:10.407Z,13.30
2022-12-25T06:08:40.001Z,13.30
2022-12-25T06:11:09.288Z,13.30
2022-12-25T06:13:38.017Z,13.30
2022-12-25T06:16:06.751Z,13.30
2022-12-25T06:18:36.963Z,13.20
2022-12-25T06:21:08.056Z,13.20
2022-12-25T06:23:36.386Z,13.20
2022-12-25T06:26:06.697Z,13.20
2022-12-25T06:28:34.906Z,13.20
2022-12-25T06:31:07.870Z,13.20
2022-12-25T06:33:36.556Z,13.20
2022-12-25T06:36:08.725Z,13.20
2022-12-25T06:38:37.025Z,13.10
2022-12-25T06:41:08.522Z,13.10
2022-12-25T06:43:36.654Z,13.20
2022-12-25T06:46:06.221Z,13.20
2022-12-25T06:48:35.307Z,13.20
2022-12-25T06:51:04.147Z,13.20
2022-12-25T06:53:39.771Z,13.20
2022-12-25T06:56:15.297Z,13.20
2022-12-25T06:58:45.031Z,13.20
2022-12-25T07:01:17.895Z,13.10
2022-12-25T07:03:47.740Z,13.10
2022-12-25T07:06:16.204Z,13.10
2022-12-25T07:08:44.295Z,13.10
2022-12-25T07:11:13.770Z,13.10
2022-12-25T07:13:41.918Z,13.10
2022-12-25T07:16:11.631Z,13.10
2022-12-25T07:18:40.836Z,13.10
2022-12-25T07:21:10.025Z,13.10
2022-12-25T07:23:38.370Z,13.10
2022-12-25T07:26:06.898Z,13.10
2022-12-25T07:28:36.453Z,13.10
2022-12-25T07:31:05.043Z,13.10
2022-12-25T07:33:33.946Z,13.10
2022-12-25T07:36:02.406Z,13.20
2022-12-25T07:38:30.583Z,13.20
2022-12-25T07:40:58.907Z,13.20
2022-12-25T07:43:27.423Z,13.20
2022-12-25T07:45:58.671Z,13.20
2022-12-25T07:48:27.277Z,13.20
2022-12-25T07:51:00.010Z,13.20
2022-12-25T07:53:28.168Z,13.30
2022-12-25T07:56:00.761Z,13.20
2022-12-25T07:58:28.991Z,13.10
2022-12-25T08:01:04.333Z,13.20
2022-12-25T08:03:33.010Z,13.20
2022-12-25T08:06:01.887Z,13.20
2022-12-25T08:08:30.457Z,13.20
2022-12-25T08:10:58.703Z,13.20
2022-12-25T08:13:27.096Z,13.20
2022-12-25T08:16:00.367Z,13.20
2022-12-25T08:18:30.317Z,13.30
2022-12-25T08:21:02.950Z,13.40
2022-12-25T08:23:31.070Z,13.50
2022-12-25T08:26:05.192Z,13.40
2022-12-25T08:28:35.088Z,13.40
2022-12-25T08:31:10.003Z,13.50
2022-12-25T08:33:39.084Z,13.50
2022-12-25T08:36:09.448Z,13.20
2022-12-25T08:38:37.790Z,13.20
2022-12-25T08:41:06.192Z,13.20
2022-12-25T08:43:34.541Z,12.90
2022-12-25T08:46:02.848Z,13.00
2022-12-25T08:48:32.676Z,13.20
2022-12-25T08:51:01.686Z,13.30
2022-12-25T08:53:29.799Z,13.50
2022-12-25T08:56:01.791Z,13.60
2022-12-25T08:58:30.022Z,13.60
2022-12-25T09:00:58.230Z,13.70
2022-12-25T09:03:26.473Z,13.80
2022-12-25T09:05:56.362Z,13.80
2022-12-25T09:08:24.511Z,13.70
2022-12-25T09:10:52.602Z,13.70
2022-12-25T09:13:20.705Z,13.70
2022-12-25T09:15:49.184Z,14.00
2022-12-25T09:18:17.316Z,13.80
2022-12-25T09:20:45.426Z,13.80
2022-12-25T09:23:14.913Z,13.80
2022-12-25T09:25:43.053Z,13.70
2022-12-25T09:28:11.158Z,13.60
2022-12-25T09:30:39.362Z,13.60
2022-12-25T09:33:08.343Z,13.50
2022-12-25T09:35:36.665Z,13.50
2022-12-25T09:38:04.853Z,13.50
2022-12-25T09:40:34.461Z,13.70
2022-12-25T09:43:03.934Z,13.70
2022-12-25T09:45:37.424Z,13.60
2022-12-25T09:48:06.284Z,13.50
2022-12-25T09:50:42.973Z,13.60
2022-12-25T09:53:16.824Z,13.70
2022-12-25T09:55:53.107Z,13.60
2022-12-25T09:58:21.237Z,13.70
2022-12-25T10:00:55.733Z,13.70
2022-12-25T10:03:47.715Z,13.60
2022-12-25T10:06:21.899Z,13.70
2022-12-25T10:09:22.539Z,14.00
2022-12-25T10:12:16.122Z,14.10
2022-12-25T10:15:05.707Z,14.30
2022-12-25T10:17:45.122Z,14.30
2022-12-25T10:20:22.520Z,14.40
2022-12-25T10:22:54.810Z,14.50
2022-12-25T10:25:25.832Z,14.80
2022-12-25T10:27:59.442Z,14.60
2022-12-25T10:30:29.377Z,14.90
2022-12-25T10:32:59.203Z,14.80
2022-12-25T10:35:30.027Z,14.90
2022-12-25T10:38:01.405Z,14.80
2022-12-25T10:40:35.947Z,14.80
2022-12-25T10:43:12.550Z,14.80
2022-12-25T10:45:45.539Z,15.00
2022-12-25T10:48:21.333Z,15.20
2022-12-25T10:50:50.063Z,15.50
2022-12-25T10:53:23.803Z,15.60
2022-12-25T10:55:56.463Z,15.60
2022-12-25T10:58:25.993Z,15.70
2022-12-25T11:00:56.234Z,15.70
2022-12-25T11:03:27.350Z,15.50
2022-12-25T11:05:55.642Z,15.30
2022-12-25T11:08:25.601Z,15.00
2022-12-25T11:10:57.020Z,14.60
2022-12-25T11:13:28.956Z,14.20
2022-12-25T11:16:06.211Z,13.90
2022-12-25T11:18:36.544Z,13.90
2022-12-25T11:21:16.769Z,14.00
2022-12-25T11:23:46.533Z,13.60
2022-12-25T11:26:14.689Z,13.80
2022-12-25T11:28:46.713Z,13.70
2022-12-25T11:31:19.216Z,13.70
2022-12-25T11:33:54.591Z,13.50
2022-12-25T11:36:30.943Z,13.70
2022-12-25T11:39:02.430Z,13.50
2022-12-25T11:41:35.358Z,13.40
2022-12-25T11:44:20.056Z,13.40
2022-12-25T11:46:52.277Z,13.60
2022-12-25T11:49:22.090Z,13.60
2022-12-25T11:51:54.816Z,13.80
2022-12-25T11:54:28.900Z,13.60
2022-12-25T11:57:00.189Z,13.50
2022-12-25T11:59:35.928Z,13.40
2022-12-25T12:02:19.518Z,13.50
2022-12-25T12:04:50.909Z,13.60
2022-12-25T12:07:26.135Z,13.70
2022-12-25T12:10:03.935Z,13.80
2022-12-25T12:12:48.335Z,13.80
2022-12-25T12:15:28.223Z,13.90
2022-12-25T12:17:56.693Z,14.20
2022-12-25T12:20:29.784Z,14.50
2022-12-25T12:22:58.863Z,14.80
2022-12-25T12:25:27.903Z,15.10
2022-12-25T12:28:04.484Z,15.30
2022-12-25T12:30:36.300Z,15.50
2022-12-25T12:33:07.219Z,15.90
2022-12-25T12:35:38.121Z,16.20
2022-12-25T12:38:12.281Z,16.50
2022-12-25T12:40:43.843Z,16.90
2022-12-25T12:43:31.492Z,17.20
2022-12-25T12:46:06.431Z,17.00
2022-12-25T12:48:41.590Z,17.50
2022-12-25T12:51:12.663Z,17.60
2022-12-25T12:53:41.742Z,17.40
2022-12-25T12:56:15.832Z,17.40
2022-12-25T12:58:48.619Z,17.00
2022-12-25T13:01:46.379Z,17.00
2022-12-25T13:04:35.048Z,16.70
2022-12-25T13:07:14.109Z,16.60
2022-12-25T13:10:01.286Z,15.70
2022-12-25T13:12:29.495Z,15.40
2022-12-25T13:14:57.805Z,15.50
2022-12-25T13:17:28.425Z,15.30
2022-12-25T13:19:58.043Z,14.90
2022-12-25T13:22:31.637Z,15.10
2022-12-25T13:25:01.475Z,15.10
2022-12-25T13:27:31.361Z,15.10
2022-12-25T13:30:00.771Z,15.00
2022-12-25T13:32:33.357Z,14.90
2022-12-25T13:35:01.979Z,15.10
2022-12-25T13:37:32.358Z,15.30
2022-12-25T13:40:04.409Z,15.40
2022-12-25T13:42:33.180Z,15.30
2022-12-25T13:45:06.079Z,14.90
2022-12-25T13:47:37.600Z,14.70
2022-12-25T13:50:17.484Z,14.80
2022-12-25T13:52:47.684Z,14.60
2022-12-25T13:55:19.025Z,14.70
2022-12-25T13:57:51.534Z,14.60
2022-12-25T14:00:22.021Z,14.60
2022-12-25T14:02:52.618Z,14.60
2022-12-25T14:05:26.730Z,14.70
2022-12-25T14:07:55.686Z,15.10
2022-12-25T14:10:25.445Z,15.40
2022-12-25T14:12:57.076Z,15.70
2022-12-25T14:15:25.520Z,15.90
2022-12-25T14:17:55.159Z,16.00
2022-12-25T14:20:25.492Z,15.90
2022-12-25T14:22:55.607Z,15.80
2022-12-25T14:25:27.934Z,15.70
2022-12-25T14:27:56.108Z,15.80
2022-12-25T14:30:25.608Z,15.70
2022-12-25T14:32:56.015Z,15.60
2022-12-25T14:35:25.138Z,15.40
2022-12-25T14:37:59.996Z,15.50
2022-12-25T14:40:31.522Z,15.50
2022-12-25T14:43:01.356Z,15.50
2022-12-25T14:45:32.194Z,15.50
2022-12-25T14:48:04.329Z,15.50
2022-12-25T14:50:36.493Z,15.50
2022-12-25T14:53:04.826Z,15.40
2022-12-25T14:55:33.179Z,15.30
2022-12-25T14:58:04.487Z,15.30
2022-12-25T15:00:35.736Z,15.30
2022-12-25T15:03:08.028Z,15.50
2022-12-25T15:05:38.247Z,15.40
2022-12-25T15:08:22.880Z,15.20
2022-12-25T15:11:01.686Z,15.30
2022-12-25T15:13:32.046Z,15.20
2022-12-25T15:16:04.642Z,15.30
2022-12-25T15:18:38.320Z,15.20
2022-12-25T15:21:07.034Z,15.10
2022-12-25T15:23:35.213Z,15.10
2022-12-25T15:26:03.325Z,15.00
2022-12-25T15:28:31.375Z,14.90
2022-12-25T15:30:59.570Z,15.00
2022-12-25T15:33:27.669Z,14.70
2022-12-25T15:35:57.102Z,14.60
2022-12-25T15:38:25.214Z,14.40
2022-12-25T15:40:53.498Z,14.50
2022-12-25T15:43:40.079Z,14.50
2022-12-25T15:46:10.388Z,14.40
2022-12-25T15:48:38.591Z,14.40
2022-12-25T15:51:08.113Z,14.50
2022-12-25T15:53:36.205Z,14.50
2022-12-25T15:56:04.385Z,14.50
2022-12-25T15:58:32.478Z,14.70
2022-12-25T16:01:00.561Z,14.70
2022-12-25T16:03:28.688Z,14.80
2022-12-25T16:05:56.801Z,14.80
2022-12-25T16:08:26.301Z,15.00
2022-12-25T16:10:54.884Z,14.90
2022-12-25T16:13:23.202Z,14.70
2022-12-25T16:15:51.394Z,14.60
2022-12-25T16:18:19.540Z,14.70
2022-12-25T16:20:47.682Z,15.00
2022-12-25T16:23:15.756Z,14.70
2022-12-25T16:25:45.224Z,14.90
2022-12-25T16:28:13.595Z,14.80
2022-12-25T16:30:42.415Z,14.50
2022-12-25T16:33:12.349Z,14.50
2022-12-25T16:35:40.527Z,14.40
2022-12-25T16:38:08.653Z,14.50
2022-12-25T16:40:36.788Z,14.50
2022-12-25T16:43:06.272Z,14.60
2022-12-25T16:45:38.943Z,14.40
2022-12-25T16:48:08.237Z,14.40
2022-12-25T16:50:39.215Z,14.20
2022-12-25T16:53:07.431Z,14.30
2022-12-25T16:55:36.803Z,14.30
2022-12-25T16:58:07.078Z,14.20
2022-12-25T17:00:35.227Z,14.30
2022-12-25T17:03:03.612Z,14.20
2022-12-25T17:05:33.593Z,14.40
2022-12-25T17:08:01.931Z,14.40
2022-12-25T17:10:30.025Z,14.40
2022-12-25T17:12:58.131Z,14.40
2022-12-25T17:15:28.727Z,14.40
2022-12-25T17:17:57.061Z,14.10
2022-12-25T17:20:25.195Z,14.10
2022-12-25T17:22:53.273Z,13.90
2022-12-25T17:25:21.439Z,14.00
2022-12-25T17:27:50.515Z,14.20
2022-12-25T17:30:18.778Z,14.20
2022-12-25T17:32:48.222Z,14.30
2022-12-25T17:35:17.823Z,14.40
2022-12-25T17:37:45.912Z,14.30
2022-12-25T17:40:15.438Z,14.00
2022-12-25T17:42:43.500Z,14.20
2022-12-25T17:45:12.738Z,14.20
2022-12-25T17:47:40.849Z,14.10
2022-12-25T17:50:10.686Z,13.90
2022-12-25T17:52:38.749Z,14.10
2022-12-25T17:55:08.477Z,14.10
2022-12-25T17:57:36.681Z,14.20
2022-12-25T18:00:06.042Z,14.20
2022-12-25T18:02:35.577Z,14.10
2022-12-25T18:05:03.820Z,14.00
2022-12-25T18:07:33.848Z,14.10
2022-12-25T18:10:01.995Z,14.00
2022-12-25T18:12:30.355Z,14.10
2022-12-25T18:14:58.489Z,14.20
2022-12-25T18:17:26.740Z,14.10
2022-12-25T18:19:54.948Z,14.20
2022-12-25T18:22:23.199Z,14.20
2022-12-25T18:24:52.677Z,14.20
2022-12-25T18:27:20.788Z,14.00
2022-12-25T18:29:48.980Z,13.90
2022-12-25T18:32:17.543Z,13.90
2022-12-25T18:34:45.731Z,14.20
2022-12-25T18:37:13.882Z,14.00
2022-12-25T18:39:41.932Z,14.10
2022-12-25T18:42:25.642Z,13.80
2022-12-25T18:44:54.530Z,13.90
2022-12-25T18:47:22.724Z,14.20
2022-12-25T18:49:50.832Z,13.90
2022-12-25T18:52:47.536Z,14.10
2022-12-25T18:55:07.688Z,14.00
2022-12-25T18:57:37.159Z,14.10
2022-12-25T19:00:06.281Z,14.10
2022-12-25T19:02:34.550Z,14.10
2022-12-25T19:05:02.773Z,14.20
2022-12-25T19:07:30.912Z,14.00
2022-12-25T19:09:59.046Z,14.00
2022-12-25T19:12:27.209Z,14.10
2022-12-25T19:14:56.821Z,14.20
2022-12-25T19:17:31.383Z,14.20
2022-12-25T19:20:00.145Z,14.00
2022-12-25T19:22:29.306Z,14.10
2022-12-25T19:24:57.670Z,14.00
2022-12-25T19:27:26.097Z,14.00
2022-12-25T19:29:54.182Z,13.90
2022-12-25T19:32:23.629Z,13.80
2022-12-25T19:34:51.818Z,13.90
2022-12-25T19:37:19.986Z,14.10
2022-12-25T19:39:48.453Z,14.10
2022-12-25T19:42:18.865Z,14.10
2022-12-25T19:44:47.170Z,13.80
2022-12-25T19:47:15.318Z,14.10
2022-12-25T19:49:47.360Z,13.90
2022-12-25T19:52:17.831Z,13.80
2022-12-25T19:54:45.918Z,13.80
2022-12-25T19:57:14.030Z,13.60
2022-12-25T19:59:42.315Z,13.80
2022-12-25T20:02:11.281Z,13.80
2022-12-25T20:04:39.541Z,13.90
2022-12-25T20:07:09.054Z,14.00
2022-12-25T20:09:37.188Z,14.00
2022-12-25T20:12:05.780Z,13.90
2022-12-25T20:14:33.891Z,14.00
2022-12-25T20:17:02.043Z,13.90
2022-12-25T20:19:30.239Z,13.70
2022-12-25T20:21:58.744Z,14.00
2022-12-25T20:24:28.249Z,13.80
2022-12-25T20:26:59.232Z,13.90
2022-12-25T20:29:27.755Z,13.80
2022-12-25T20:31:55.969Z,14.10
2022-12-25T20:34:24.269Z,14.10
2022-12-25T20:36:52.375Z,14.30
2022-12-25T20:39:20.485Z,13.80
2022-12-25T20:41:49.941Z,13.70
2022-12-25T20:44:18.088Z,13.80
2022-12-25T20:46:46.267Z,14.10
2022-12-25T20:49:14.440Z,13.90
2022-12-25T20:51:42.530Z,13.80
2022-12-25T20:54:12.750Z,13.80
2022-12-25T20:56:41.307Z,13.90
2022-12-25T20:59:14.573Z,13.70
2022-12-25T21:01:42.781Z,14.00
2022-12-25T21:04:16.026Z,13.70
2022-12-25T21:06:44.761Z,13.90
2022-12-25T21:09:12.956Z,13.70
2022-12-25T21:11:41.505Z,14.10
2022-12-25T21:14:12.393Z,13.90
2022-12-25T21:16:40.560Z,13.90
2022-12-25T21:19:08.740Z,13.90
2022-12-25T21:21:39.133Z,13.60
2022-12-25T21:24:07.607Z,13.80
2022-12-25T21:26:35.913Z,13.80
2022-12-25T21:29:04.991Z,13.80
2022-12-25T21:31:56.187Z,13.80
2022-12-25T21:34:23.593Z,13.70
2022-12-25T21:36:51.661Z,13.80
2022-12-25T21:39:19.781Z,14.00
2022-12-25T21:41:47.876Z,13.90
2022-12-25T21:44:16.041Z,13.80
2022-12-25T21:46:45.486Z,13.80
2022-12-25T21:49:33.625Z,13.90
2022-12-25T21:52:09.377Z,13.90
2022-12-25T21:54:37.816Z,14.10
2022-12-25T21:57:06.134Z,13.90
2022-12-25T21:59:34.279Z,14.00
2022-12-25T22:02:11.207Z,13.80
2022-12-25T22:04:39.968Z,13.90
2022-12-25T22:07:19.106Z,14.10
2022-12-25T22:09:48.314Z,14.20
2022-12-25T22:12:34.323Z,14.10
2022-12-25T22:15:06.477Z,14.20
2022-12-25T22:17:55.509Z,14.20
2022-12-25T22:20:26.290Z,14.10
2022-12-25T22:22:54.716Z,14.10
2022-12-25T22:25:23.367Z,14.00
2022-12-25T22:27:52.043Z,13.80
2022-12-25T22:30:21.976Z,14.10
2022-12-25T22:32:52.242Z,14.10
2022-12-25T22:35:21.181Z,14.20
2022-12-25T22:37:49.670Z,14.10
2022-12-25T22:40:20.042Z,14.10
2022-12-25T22:42:48.368Z,14.20
2022-12-25T22:45:16.603Z,14.20
2022-12-25T22:47:44.669Z,14.20
2022-12-25T22:50:15.584Z,14.20
2022-12-25T22:52:45.667Z,14.10
2022-12-25T22:55:18.226Z,14.10
2022-12-25T22:57:46.352Z,14.00
2022-12-25T23:00:15.161Z,14.40
2022-12-25T23:02:43.370Z,14.10
2022-12-25T23:05:13.033Z,14.10
2022-12-25T23:07:41.773Z,14.10
2022-12-25T23:10:11.172Z,14.00
2022-12-25T23:12:56.740Z,14.10
2022-12-25T23:15:24.797Z,14.10
2022-12-25T23:18:10.756Z,14.20
2022-12-25T23:20:57.557Z,14.10
2022-12-25T23:23:43.095Z,14.10
2022-12-25T23:26:12.102Z,14.10
2022-12-25T23:29:00.272Z,13.80
2022-12-25T23:31:33.436Z,14.00
2022-12-25T23:34:02.078Z,13.90
2022-12-25T23:36:31.885Z,13.80
2022-12-25T23:39:06.686Z,14.10
2022-12-25T23:41:37.006Z,14.00
2022-12-25T23:44:05.183Z,14.00
2022-12-25T23:46:33.439Z,14.20
2022-12-25T23:49:01.585Z,14.10
2022-12-25T23:51:31.159Z,14.10
2022-12-25T23:53:59.235Z,14.20
2022-12-25T23:56:27.377Z,14.30
2022-12-25T23:58:55.463Z,14.20
